FlightSource - Aviation Photo Database

World Wide Airport Lookup


Search by ICAO
Or
Search by City

FlightSource.ca - Aviation Photo Database - RNZAF Base Auckland-Whenuapai Information
Airport Identification
Name: RNZAF Base Auckland-Whenuapai
ICAO: NZWP
IATA:
Airport Location
City:
Region: AUK
Country: New Zealand
Continent: OC
Latitude: -36.7878
Longitude: 174.63
Airport Information
Type: Medium Airport
Elevation: 100 Feet ASL
Flight Status: NZWP
More Info: NZWP
Airport Weather    
Metar: NZWP 222200Z 27003KT 200V310 30KM SCT026 BKN035 20/12 Q1027 NOSIG
TAF:


Advertisement